Reading Regional Carl A Spaatz Field
KRDG : now visible

Airfield :











YOU CAN JOIN US ON...

 
LOGIN :

Register | Disclaimer

   EN    FR    IT 

 









Legend :    VFR   Marginal VFR   IFR   Intensive IFR   Very Intensive IFR
Visi :
Ceiling :
>= 8 km
>= 3000ft
5 to 8 km
1000 to 3000 ft
1500m to 5 km
500 to 1000 ft
800 to 1500m
200 to 500 ft
< 800m
< 200 ft
Symbols :   Thunderstorms  Fog  Heavy snow  Heavy precipitations  Wind > 20 kt






- Airport Elevation : 344 ft
- IATA code : RDG


KRDG - Reading Regional Carl A Spaatz Field

CURRENT METAR :
  • 291254Z 00000KT 10SM CLR 22/14 A3024 RMK AO2 SLP243 T02220139

EXPIRED METARs :
  • 291203Z 00000KT 8SM CLR 20/16 A3024 RMK AO2 T02000156
  • 291154Z 00000KT 10SM CLR 19/16 A3024 RMK AO2 SLP242 T01890156 10189 20150 50007 $
  • 291054Z 00000KT 8SM CLR 17/14 A3024 RMK AO2 SLP243 T01670144 $

TAF KRDG
Valid from the 29 at 12:00 until the 30 at 12:00 UTC


291120Z 2912/3012 VRB02KT P6SM SKC
FM291300 22005KT P6SM SKC
FM291700 23011KT P6SM FEW060
FM292200 21006KT P6SM SCT060 SCT200
FM300300 VRB04KT P6SM FEW250
KZNY FIR / North America



MET'MAP, your aeronautical weather chart ! - Copyright ORBIFLY December 2007 - Disclaimer

ORBIFLY MET'MAP TEAM :

Programming & Development : Alexandra Zaïnal
Original concept : Baudouin d'Aumeries
Technical & hardware support : Manuel Goepfert
Assistance : Marc-Olivier Méhu




SOURCES & CREDITS :

   NOAA       Earth
Advisory